| time (UTC) | temp F | wind direction | speed MPH | gust MPH | rain 1hr in | rain 24hr in | rain mn in | humidity % | barometer mb |
| 20260508132534 | 56 | 246 | 4.0 | 6.0 | 0.00 | 0.00 | 0.00 | 71 | 1008.8 |
| 20260508132034 | 55 | 215 | 1.0 | 2.0 | 0.00 | 0.00 | 0.00 | 72 | 1008.8 |
| 20260508131434 | 56 | 219 | 4.0 | 5.0 | 0.00 | 0.00 | 0.00 | 71 | 1008.9 |
| 20260508130834 | 55 | 235 | 5.0 | 6.0 | 0.00 | 0.00 | 0.00 | 71 | 1008.8 |
| 20260508130234 | 54 | 236 | 3.0 | 4.0 | 0.00 | 0.00 | 0.00 | 73 | 1008.8 |
| 20260508125734 | 54 | 241 | 3.0 | 4.0 | 0.00 | 0.00 | 0.00 | 72 | 1008.7 |
| 20260508125134 | 54 | 201 | 4.0 | 4.0 | 0.00 | 0.00 | 0.00 | 73 | 1008.8 |
| 20260508124534 | 54 | 228 | 2.0 | 4.0 | 0.00 | 0.00 | 0.00 | 72 | 1008.8 |
| 20260508123935 | 54 | 216 | 4.0 | 5.0 | 0.00 | 0.00 | 0.00 | 72 | 1008.7 |
| 20260508123424 | 53 | 234 | 3.0 | 4.0 | 0.00 | 0.00 | 0.00 | 71 | 1008.8 |
| 20260508122905 | 52 | 224 | 1.0 | 2.0 | 0.00 | 0.00 | 0.00 | 73 | 1008.9 |
| 20260508122336 | 52 | 232 | 3.0 | 4.0 | 0.00 | 0.00 | 0.00 | 74 | 1008.9 |
| 20260508121834 | 51 | 212 | 0.0 | 1.0 | 0.00 | 0.00 | 0.00 | 72 | 1009.0 |
| 20260508121234 | 52 | 223 | 1.0 | 2.0 | 0.00 | 0.00 | 0.00 | 73 | 1008.9 |
| 20260508120634 | 51 | 216 | 1.0 | 2.0 | 0.00 | 0.00 | 0.00 | 73 | 1009.0 |
| 20260508120120 | 51 | 221 | 3.0 | 3.0 | 0.00 | 0.00 | 0.00 | 73 | 1008.9 |
| 20260508115600 | 51 | 229 | 2.0 | 3.0 | 0.00 | 0.00 | 0.00 | 73 | 1008.8 |
| 20260508115040 | 51 | 244 | 2.0 | 3.0 | 0.00 | 0.00 | 0.00 | 73 | 1009.0 |
| 20260508113456 | 50 | 215 | 1.0 | 2.0 | 0.00 | 0.00 | 0.00 | 74 | 1008.8 |
| 20260508112934 | 50 | 232 | 1.0 | 2.0 | 0.00 | 0.00 | 0.00 | 75 | 1008.7 |
| 20260508112416 | 50 | 241 | 3.0 | 5.0 | 0.00 | 0.00 | 0.00 | 75 | 1008.5 |
| 20260508111856 | 49 | 220 | 2.0 | 3.0 | 0.00 | 0.00 | 0.00 | 75 | 1008.6 |
| 20260508111334 | 49 | 235 | 1.0 | 2.0 | 0.00 | 0.00 | 0.00 | 75 | 1008.6 |
| 20260508110816 | 49 | 231 | 0.0 | 1.0 | 0.00 | 0.00 | 0.00 | 74 | 1008.7 |
| 20260508110256 | 50 | 216 | 2.0 | 2.0 | 0.00 | 0.00 | 0.00 | 74 | 1008.7 |
| 20260508105734 | 50 | 238 | 5.0 | 5.0 | 0.00 | 0.00 | 0.00 | 74 | 1008.9 |
| 20260508104134 | 50 | 237 | 1.0 | 2.0 | 0.00 | 0.00 | 0.00 | 74 | 1008.5 |
| 20260508103616 | 50 | 215 | 1.0 | 1.0 | 0.00 | 0.00 | 0.00 | 73 | 1008.5 |
| 20260508103056 | 50 | 239 | 2.0 | 2.0 | 0.00 | 0.00 | 0.00 | 73 | 1008.6 |
| 20260508102534 | 50 | 239 | 3.0 | 3.0 | 0.00 | 0.00 | 0.00 | 73 | 1008.6 |
| 20260508102016 | 50 | 221 | 1.0 | 2.0 | 0.00 | 0.00 | 0.00 | 73 | 1008.5 |
| 20260508100934 | 50 | 214 | 3.0 | 4.0 | 0.00 | 0.00 | 0.00 | 72 | 1008.5 |
| 20260508100416 | 50 | 235 | 3.0 | 4.0 | 0.00 | 0.00 | 0.00 | 72 | 1008.6 |
| 20260508095856 | 50 | 232 | 4.0 | 6.0 | 0.00 | 0.00 | 0.00 | 72 | 1008.5 |
| 20260508095334 | 50 | 232 | 1.0 | 2.0 | 0.00 | 0.00 | 0.00 | 72 | 1008.5 |
| 20260508094816 | 50 | 228 | 0.0 | 1.0 | 0.00 | 0.00 | 0.00 | 71 | 1008.4 |
| 20260508094256 | 51 | 220 | 1.0 | 3.0 | 0.00 | 0.00 | 0.00 | 71 | 1008.6 |
| 20260508093734 | 50 | 221 | 4.0 | 4.0 | 0.00 | 0.00 | 0.00 | 71 | 1008.4 |
| 20260508093216 | 50 | 239 | 2.0 | 3.0 | 0.00 | 0.00 | 0.00 | 71 | 1008.5 |
| 20260508092656 | 50 | 223 | 2.0 | 3.0 | 0.00 | 0.00 | 0.00 | 70 | 1008.3 |
| 20260508092134 | 51 | 244 | 3.0 | 4.0 | 0.00 | 0.00 | 0.00 | 71 | 1008.2 |
| 20260508091616 | 51 | 233 | 3.0 | 4.0 | 0.00 | 0.00 | 0.00 | 70 | 1008.3 |
| 20260508091056 | 51 | 220 | 1.0 | 2.0 | 0.00 | 0.00 | 0.00 | 70 | 1008.5 |
| 20260508090534 | 50 | 215 | 3.0 | 4.0 | 0.00 | 0.00 | 0.00 | 70 | 1008.6 |
| 20260508090017 | 50 | 221 | 2.0 | 3.0 | 0.00 | 0.00 | 0.00 | 70 | 1008.4 |
| 20260508085456 | 51 | 248 | 5.0 | 8.0 | 0.00 | 0.00 | 0.00 | 70 | 1008.5 |
| 20260508084934 | 51 | 223 | 0.0 | 1.0 | 0.00 | 0.00 | 0.00 | 70 | 1008.3 |
| 20260508084416 | 51 | 215 | 4.0 | 4.0 | 0.00 | 0.00 | 0.00 | 70 | 1008.3 |
| 20260508083856 | 50 | 211 | 2.0 | 2.0 | 0.00 | 0.00 | 0.00 | 70 | 1008.3 |
| 20260508083334 | 51 | 196 | 1.0 | 3.0 | 0.00 | 0.00 | 0.00 | 69 | 1008.5 |
| 20260508082816 | 50 | 227 | 4.0 | 6.0 | 0.00 | 0.00 | 0.00 | 70 | 1008.3 |
| 20260508082256 | 50 | 234 | 3.0 | 4.0 | 0.00 | 0.00 | 0.00 | 71 | 1008.6 |
| 20260508081734 | 50 | 196 | 1.0 | 3.0 | 0.00 | 0.00 | 0.00 | 70 | 1008.4 |
| 20260508081217 | 50 | 233 | 1.0 | 2.0 | 0.00 | 0.00 | 0.00 | 70 | 1008.4 |
| 20260508080656 | 50 | 239 | 3.0 | 4.0 | 0.00 | 0.00 | 0.00 | 70 | 1008.5 |
| 20260508080134 | 50 | 220 | 2.0 | 3.0 | 0.00 | 0.00 | 0.00 | 71 | 1008.7 |
| 20260508075616 | 50 | 218 | 5.0 | 6.0 | 0.00 | 0.00 | 0.00 | 70 | 1008.7 |
| 20260508075056 | 50 | 233 | 3.0 | 4.0 | 0.00 | 0.00 | 0.00 | 71 | 1008.9 |
| 20260508074534 | 50 | 177 | 2.0 | 3.0 | 0.00 | 0.00 | 0.00 | 71 | 1008.9 |
| 20260508074016 | 51 | 240 | 2.0 | 3.0 | 0.00 | 0.00 | 0.00 | 70 | 1008.9 |
| 20260508073456 | 51 | 233 | 2.0 | 2.0 | 0.00 | 0.00 | 0.00 | 69 | 1009.1 |
| 20260508072934 | 51 | 222 | 4.0 | 4.0 | 0.00 | 0.00 | 0.00 | 69 | 1009.0 |
| 20260508072417 | 51 | 230 | 2.0 | 3.0 | 0.00 | 0.00 | 0.00 | 69 | 1009.2 |
| 20260508071856 | 51 | 212 | 2.0 | 3.0 | 0.00 | 0.00 | 0.00 | 68 | 1009.0 |
| 20260508070816 | 52 | 241 | 2.0 | 4.0 | 0.00 | 0.00 | 0.00 | 67 | 1009.2 |
| 20260508070256 | 52 | 221 | 2.0 | 3.0 | 0.00 | 0.00 | 0.00 | 67 | 1009.3 |
| 20260508065734 | 52 | 236 | 2.0 | 3.0 | 0.00 | 0.00 | 0.00 | 66 | 1009.4 |
| 20260508065216 | 52 | 229 | 4.0 | 4.0 | 0.00 | 0.00 | 0.00 | 66 | 1009.2 |
| 20260508064656 | 52 | 218 | 3.0 | 3.0 | 0.00 | 0.00 | 0.00 | 66 | 1009.5 |
| 20260508064134 | 53 | 217 | 3.0 | 4.0 | 0.00 | 0.00 | 0.00 | 64 | 1009.4 |
| 20260508063616 | 53 | 209 | 3.0 | 4.0 | 0.00 | 0.00 | 0.00 | 65 | 1009.3 |
| 20260508062534 | 53 | 227 | 1.0 | 2.0 | 0.00 | 0.00 | 0.00 | 65 | 1009.5 |
| 20260508062017 | 53 | 215 | 2.0 | 3.0 | 0.00 | 0.00 | 0.00 | 64 | 1009.7 |
| 20260508061456 | 54 | 233 | 3.0 | 4.0 | 0.00 | 0.00 | 0.00 | 63 | 1009.5 |
| 20260508060936 | 54 | 244 | 5.0 | 6.0 | 0.00 | 0.00 | 0.00 | 62 | 1009.6 |
| 20260508060333 | 54 | 218 | 5.0 | 8.0 | 0.00 | 0.00 | 0.00 | 61 | 1009.6 |
| 20260508055733 | 54 | 229 | 7.0 | 8.0 | 0.00 | 0.00 | 0.00 | 61 | 1009.4 |
| 20260508055134 | 54 | 206 | 4.0 | 6.0 | 0.00 | 0.00 | 0.00 | 63 | 1009.5 |
| 20260508054534 | 55 | 240 | 6.0 | 9.0 | 0.00 | 0.00 | 0.00 | 62 | 1009.6 |
| 20260508053334 | 55 | 242 | 1.0 | 3.0 | 0.00 | 0.00 | 0.00 | 62 | 1009.4 |
| 20260508052733 | 55 | 233 | 4.0 | 4.0 | 0.00 | 0.00 | 0.00 | 60 | 1009.3 |
| 20260508052133 | 55 | 155 | 3.0 | 3.0 | 0.00 | 0.00 | 0.00 | 62 | 1009.6 |
| 20260508051533 | 55 | 229 | 4.0 | 5.0 | 0.00 | 0.00 | 0.00 | 62 | 1009.5 |
| 20260508050934 | 55 | 240 | 3.0 | 4.0 | 0.00 | 0.00 | 0.00 | 63 | 1009.5 |
| 20260508050334 | 54 | 210 | 2.0 | 4.0 | 0.00 | 0.00 | 0.00 | 64 | 1009.4 |
| 20260508045734 | 54 | 227 | 2.0 | 2.0 | 0.00 | 0.00 | 0.00 | 65 | 1009.5 |
| 20260508045133 | 54 | 204 | 0.0 | 0.0 | 0.00 | 0.00 | 0.00 | 69 | 1009.4 |
| 20260508044533 | 54 | 211 | 2.0 | 4.0 | 0.00 | 0.00 | 0.00 | 67 | 1009.5 |
| 20260508043934 | 53 | 217 | 0.0 | 1.0 | 0.00 | 0.00 | 0.00 | 67 | 1009.4 |
| 20260508043333 | 54 | 196 | 0.0 | 2.0 | 0.00 | 0.00 | 0.00 | 68 | 1009.6 |
| 20260508042734 | 53 | 229 | 0.0 | 0.0 | 0.00 | 0.00 | 0.00 | 68 | 1009.3 |
| 20260508042134 | 53 | 220 | 2.0 | 2.0 | 0.00 | 0.00 | 0.00 | 67 | 1009.4 |
| 20260508041534 | 53 | 203 | 0.0 | 1.0 | 0.00 | 0.00 | 0.00 | 69 | 1009.4 |
| 20260508040334 | 53 | 222 | 0.0 | 1.0 | 0.00 | 0.00 | 0.00 | 68 | 1009.4 |
| 20260508035733 | 53 | 202 | 1.0 | 1.0 | 0.00 | 0.00 | 0.00 | 68 | 1009.5 |
| 20260508034533 | 53 | 228 | 1.0 | 2.0 | 0.00 | 0.00 | 0.00 | 69 | 1009.3 |
| 20260508033934 | 53 | 222 | 2.0 | 2.0 | 0.00 | 0.00 | 0.00 | 69 | 1009.3 |
| 20260508033334 | 53 | 222 | 1.0 | 2.0 | 0.00 | 0.00 | 0.00 | 68 | 1009.4 |
| 20260508032733 | 54 | 238 | 1.0 | 2.0 | 0.00 | 0.00 | 0.00 | 67 | 1009.4 |
| 20260508031533 | 54 | 219 | 0.0 | 2.0 | 0.00 | 0.00 | 0.00 | 67 | 1009.7 |
| 20260508030933 | 54 | 239 | 1.0 | 3.0 | 0.00 | 0.00 | 0.00 | 67 | 1009.3 |
| 20260508030333 | 54 | 213 | 0.0 | 0.0 | 0.00 | 0.00 | 0.00 | 68 | 1009.4 |
| 20260508025734 | 54 | 231 | 1.0 | 2.0 | 0.00 | 0.00 | 0.00 | 68 | 1009.3 |
| 20260508025217 | 54 | 241 | 0.0 | 1.0 | 0.00 | 0.00 | 0.00 | 69 | 1009.3 |
| 20260508024657 | 54 | 241 | 2.0 | 3.0 | 0.00 | 0.00 | 0.00 | 67 | 1009.3 |
| 20260508024134 | 54 | 203 | 1.0 | 2.0 | 0.00 | 0.00 | 0.00 | 67 | 1009.4 |
| 20260508023617 | 55 | 220 | 0.0 | 1.0 | 0.00 | 0.00 | 0.00 | 67 | 1009.1 |
| 20260508023057 | 55 | 219 | 1.0 | 2.0 | 0.00 | 0.00 | 0.00 | 66 | 1009.3 |
| 20260508022017 | 54 | 240 | 0.0 | 1.0 | 0.00 | 0.00 | 0.00 | 67 | 1009.2 |
| 20260508021456 | 54 | 241 | 0.0 | 0.0 | 0.00 | 0.00 | 0.00 | 67 | 1009.2 |
| 20260508020934 | 54 | 245 | 0.0 | 1.0 | 0.00 | 0.00 | 0.00 | 68 | 1009.0 |
| 20260508020433 | 54 | 245 | 0.0 | 1.0 | 0.00 | 0.00 | 0.00 | 67 | 1008.9 |
| 20260508015913 | 54 | 244 | 0.0 | 0.0 | 0.00 | 0.00 | 0.00 | 68 | 1008.9 |
| 20260508015353 | 54 | 245 | 0.0 | 0.0 | 0.00 | 0.00 | 0.00 | 71 | 1009.1 |
| 20260508014833 | 52 | 246 | 0.0 | 0.0 | 0.00 | 0.00 | 0.00 | 73 | 1008.8 |
| 20260508014313 | 52 | 245 | 0.0 | 0.0 | 0.00 | 0.00 | 0.00 | 75 | 1009.1 |
| 20260508013734 | 52 | 245 | 0.0 | 0.0 | 0.00 | 0.00 | 0.00 | 74 | 1008.8 |
| 20260508013134 | 53 | 246 | 0.0 | 0.0 | 0.00 | 0.00 | 0.00 | 72 | 1008.8 |
| 20260508012625 | 54 | 246 | 0.0 | 0.0 | 0.00 | 0.00 | 0.00 | 70 | 1008.6 |
| 20260508012107 | 55 | 245 | 0.0 | 0.0 | 0.00 | 0.00 | 0.00 | 68 | 1008.7 |
| 20260508011534 | 56 | 245 | 0.0 | 0.0 | 0.00 | 0.00 | 0.00 | 63 | 1008.8 |
| 20260508011025 | 56 | 246 | 0.0 | 1.0 | 0.00 | 0.00 | 0.00 | 63 | 1008.8 |
| 20260508010510 | 56 | 250 | 0.0 | 0.0 | 0.00 | 0.00 | 0.00 | 61 | 1008.5 |
| 20260508005945 | 57 | 239 | 0.0 | 0.0 | 0.00 | 0.00 | 0.00 | 63 | 1008.8 |
| 20260508005425 | 57 | 239 | 0.0 | 0.0 | 0.00 | 0.00 | 0.00 | 59 | 1008.6 |
| 20260508004345 | 58 | 238 | 0.0 | 0.0 | 0.00 | 0.00 | 0.00 | 58 | 1008.6 |
| 20260508003825 | 59 | 239 | 0.0 | 0.0 | 0.00 | 0.00 | 0.00 | 58 | 1008.6 |
| 20260508003306 | 59 | 229 | 1.0 | 1.0 | 0.00 | 0.00 | 0.00 | 57 | 1008.6 |
| 20260508002733 | 58 | 252 | 3.0 | 3.0 | 0.00 | 0.00 | 0.00 | 56 | 1008.5 |
| 20260508001706 | 59 | 221 | 1.0 | 2.0 | 0.00 | 0.00 | 0.00 | 55 | 1008.7 |
| 20260508001134 | 59 | 235 | 1.0 | 2.0 | 0.00 | 0.00 | 0.00 | 55 | 1008.6 |
| 20260508000625 | 59 | 232 | 2.0 | 3.0 | 0.00 | 0.00 | 0.00 | 52 | 1008.5 |
| 20260508000106 | 59 | 231 | 3.0 | 3.0 | 0.00 | 0.00 | 0.00 | 53 | 1008.4 |
| 20260507235545 | 59 | 210 | 2.0 | 2.0 | 0.00 | 0.00 | 0.00 | 53 | 1008.5 |
| 20260507235025 | 59 | 214 | 1.0 | 2.0 | 0.00 | 0.00 | 0.00 | 51 | 1008.6 |
| 20260507234506 | 59 | 234 | 4.0 | 5.0 | 0.00 | 0.00 | 0.00 | 52 | 1008.6 |
| 20260507233425 | 60 | 244 | 4.0 | 5.0 | 0.00 | 0.00 | 0.00 | 53 | 1008.7 |
| 20260507232906 | 60 | 221 | 6.0 | 10.0 | 0.00 | 0.00 | 0.00 | 54 | 1008.7 |
| 20260507232345 | 60 | 196 | 8.0 | 10.0 | 0.00 | 0.00 | 0.00 | 51 | 1008.5 |
| 20260507231833 | 60 | 206 | 2.0 | 2.0 | 0.00 | 0.00 | 0.00 | 51 | 1008.4 |
| 20260507231321 | 61 | 241 | 6.0 | 8.0 | 0.00 | 0.00 | 0.00 | 53 | 1008.6 |
| 20260507230801 | 62 | 229 | 8.0 | 10.0 | 0.00 | 0.00 | 0.00 | 50 | 1008.8 |
| 20260507230234 | 61 | 173 | 6.0 | 8.0 | 0.00 | 0.00 | 0.00 | 53 | 1008.9 |
| 20260507225721 | 61 | 241 | 7.0 | 10.0 | 0.00 | 0.00 | 0.00 | 51 | 1008.9 |
| 20260507225201 | 61 | 254 | 8.0 | 10.0 | 0.00 | 0.00 | 0.00 | 54 | 1008.8 |
| 20260507224641 | 62 | 183 | 3.0 | 5.0 | 0.00 | 0.00 | 0.00 | 46 | 1008.9 |
| 20260507224121 | 61 | 209 | 2.0 | 2.0 | 0.00 | 0.00 | 0.00 | 52 | 1008.8 |
| 20260507223601 | 61 | 238 | 4.0 | 6.0 | 0.00 | 0.00 | 0.00 | 51 | 1009.0 |
| 20260507223041 | 61 | 282 | 8.0 | 9.0 | 0.00 | 0.00 | 0.00 | 51 | 1009.0 |
| 20260507222521 | 62 | 216 | 5.0 | 6.0 | 0.00 | 0.00 | 0.00 | 49 | 1009.1 |
| 20260507222001 | 62 | 237 | 5.0 | 8.0 | 0.00 | 0.00 | 0.00 | 49 | 1008.9 |
| 20260507221441 | 62 | 223 | 5.0 | 6.0 | 0.00 | 0.00 | 0.00 | 49 | 1008.9 |
| 20260507220921 | 62 | 229 | 7.0 | 9.0 | 0.00 | 0.00 | 0.00 | 50 | 1008.9 |
| 20260507220401 | 62 | 221 | 6.0 | 8.0 | 0.00 | 0.00 | 0.00 | 46 | 1009.1 |
| 20260507215841 | 62 | 264 | 4.0 | 5.0 | 0.00 | 0.00 | 0.00 | 49 | 1008.9 |
| 20260507215321 | 61 | 248 | 3.0 | 5.0 | 0.00 | 0.00 | 0.00 | 49 | 1008.8 |
| 20260507214801 | 62 | 217 | 9.0 | 11.0 | 0.00 | 0.00 | 0.00 | 51 | 1008.9 |
| 20260507214241 | 62 | 233 | 8.0 | 9.0 | 0.00 | 0.00 | 0.00 | 50 | 1008.7 |
| 20260507213721 | 62 | 297 | 9.0 | 11.0 | 0.00 | 0.00 | 0.00 | 46 | 1009.1 |
| 20260507213201 | 62 | 253 | 7.0 | 9.0 | 0.00 | 0.00 | 0.00 | 47 | 1009.0 |
| 20260507212633 | 63 | 208 | 4.0 | 5.0 | 0.00 | 0.00 | 0.00 | 49 | 1008.9 |
| 20260507212121 | 63 | 209 | 4.0 | 5.0 | 0.00 | 0.00 | 0.00 | 49 | 1008.8 |
| 20260507211601 | 62 | 188 | 4.0 | 5.0 | 0.00 | 0.00 | 0.00 | 44 | 1008.9 |
| 20260507211034 | 62 | 232 | 10.0 | 11.0 | 0.00 | 0.00 | 0.00 | 46 | 1009.0 |
| 20260507210521 | 62 | 216 | 4.0 | 5.0 | 0.00 | 0.00 | 0.00 | 49 | 1008.8 |
| 20260507210001 | 62 | 244 | 8.0 | 10.0 | 0.00 | 0.00 | 0.00 | 47 | 1009.0 |
| 20260507205441 | 62 | 206 | 2.0 | 4.0 | 0.00 | 0.00 | 0.00 | 49 | 1009.0 |
| 20260507204921 | 61 | 225 | 3.0 | 5.0 | 0.00 | 0.00 | 0.00 | 45 | 1009.4 |
| 20260507204401 | 62 | 226 | 7.0 | 9.0 | 0.00 | 0.00 | 0.00 | 45 | 1009.1 |
| 20260507203841 | 61 | 199 | 5.0 | 5.0 | 0.00 | 0.00 | 0.00 | 50 | 1009.2 |
| 20260507203321 | 61 | 237 | 5.0 | 6.0 | 0.00 | 0.00 | 0.00 | 50 | 1009.4 |
| 20260507202801 | 62 | 198 | 0.0 | 2.0 | 0.00 | 0.00 | 0.00 | 45 | 1009.4 |
| 20260507202234 | 62 | 236 | 6.0 | 8.0 | 0.00 | 0.00 | 0.00 | 49 | 1009.5 |
| 20260507201722 | 61 | 279 | 8.0 | 10.0 | 0.00 | 0.00 | 0.00 | 47 | 1009.7 |
| 20260507201201 | 61 | 234 | 4.0 | 6.0 | 0.00 | 0.00 | 0.00 | 52 | 1009.8 |
| 20260507200634 | 61 | 227 | 3.0 | 4.0 | 0.00 | 0.00 | 0.00 | 51 | 1009.6 |
| 20260507200121 | 61 | 245 | 9.0 | 11.0 | 0.00 | 0.00 | 0.00 | 49 | 1009.9 |
| 20260507195601 | 61 | 244 | 5.0 | 8.0 | 0.00 | 0.00 | 0.00 | 47 | 1009.9 |
| 20260507195034 | 60 | 236 | 6.0 | 6.0 | 0.00 | 0.00 | 0.00 | 55 | 1010.1 |
| 20260507194521 | 61 | 270 | 7.0 | 9.0 | 0.00 | 0.00 | 0.00 | 47 | 1010.2 |
| 20260507194002 | 61 | 294 | 7.0 | 9.0 | 0.00 | 0.00 | 0.00 | 49 | 1010.0 |
| 20260507193433 | 61 | 243 | 6.0 | 6.0 | 0.00 | 0.00 | 0.00 | 54 | 1010.1 |
| 20260507192921 | 61 | 184 | 1.0 | 3.0 | 0.00 | 0.00 | 0.00 | 46 | 1010.1 |
| 20260507191833 | 61 | 261 | 4.0 | 6.0 | 0.00 | 0.00 | 0.00 | 52 | 1010.3 |
| 20260507191322 | 61 | 221 | 2.0 | 2.0 | 0.00 | 0.00 | 0.00 | 47 | 1010.2 |
| 20260507190801 | 61 | 238 | 6.0 | 8.0 | 0.00 | 0.00 | 0.00 | 52 | 1010.3 |
| 20260507190234 | 60 | 272 | 1.0 | 1.0 | 0.00 | 0.00 | 0.00 | 44 | 1010.4 |
| 20260507185721 | 60 | 218 | 4.0 | 6.0 | 0.00 | 0.00 | 0.00 | 50 | 1010.5 |
| 20260507185202 | 60 | 231 | 7.0 | 9.0 | 0.00 | 0.00 | 0.00 | 50 | 1010.7 |
| 20260507184122 | 60 | 275 | 6.0 | 8.0 | 0.00 | 0.00 | 0.00 | 50 | 1010.5 |
| 20260507183601 | 60 | 258 | 5.0 | 6.0 | 0.00 | 0.00 | 0.00 | 52 | 1010.8 |
| 20260507183041 | 59 | 218 | 2.0 | 3.0 | 0.00 | 0.00 | 0.00 | 50 | 1010.9 |
| 20260507182522 | 59 | 345 | 3.0 | 3.0 | 0.00 | 0.00 | 0.00 | 44 | 1010.9 |
| 20260507182002 | 60 | 239 | 4.0 | 6.0 | 0.00 | 0.00 | 0.00 | 52 | 1011.0 |
| 20260507181441 | 60 | 239 | 5.0 | 6.0 | 0.00 | 0.00 | 0.00 | 53 | 1011.1 |
| 20260507180921 | 60 | 258 | 3.0 | 4.0 | 0.00 | 0.00 | 0.00 | 46 | 1010.8 |
| 20260507180402 | 60 | 276 | 4.0 | 5.0 | 0.00 | 0.00 | 0.00 | 53 | 1010.9 |
| 20260507175842 | 60 | 176 | 3.0 | 5.0 | 0.00 | 0.00 | 0.00 | 47 | 1011.0 |
| 20260507175321 | 59 | 219 | 2.0 | 3.0 | 0.00 | 0.00 | 0.00 | 43 | 1011.1 |
| 20260507174802 | 59 | 284 | 4.0 | 6.0 | 0.00 | 0.00 | 0.00 | 55 | 1011.3 |
| 20260507173722 | 59 | 233 | 1.0 | 2.0 | 0.00 | 0.00 | 0.00 | 43 | 1011.3 |
| 20260507173202 | 59 | 281 | 7.0 | 9.0 | 0.00 | 0.00 | 0.00 | 48 | 1011.6 |
| 20260507172642 | 59 | 228 | 4.0 | 5.0 | 0.00 | 0.00 | 0.00 | 50 | 1011.3 |
| 20260507172122 | 58 | 283 | 4.0 | 5.0 | 0.00 | 0.00 | 0.00 | 41 | 1011.4 |
| 20260507171601 | 58 | 347 | 0.0 | 1.0 | 0.00 | 0.00 | 0.00 | 44 | 1011.3 |
| 20260507171041 | 58 | 286 | 2.0 | 3.0 | 0.00 | 0.00 | 0.00 | 47 | 1011.9 |
| 20260507170522 | 58 | 266 | 5.0 | 8.0 | 0.00 | 0.00 | 0.00 | 56 | 1011.8 |
| 20260507165442 | 58 | 218 | 1.0 | 1.0 | 0.00 | 0.00 | 0.00 | 44 | 1011.9 |
| 20260507164922 | 58 | 261 | 0.0 | 0.0 | 0.00 | 0.00 | 0.00 | 43 | 1011.9 |
| 20260507163841 | 57 | 219 | 4.0 | 5.0 | 0.00 | 0.00 | 0.00 | 43 | 1012.1 |
| 20260507163321 | 57 | 301 | 2.0 | 3.0 | 0.00 | 0.00 | 0.00 | 40 | 1012.0 |
| 20260507162242 | 57 | 256 | 2.0 | 3.0 | 0.00 | 0.00 | 0.00 | 48 | 1012.2 |
| 20260507161721 | 57 | 211 | 5.0 | 6.0 | 0.00 | 0.00 | 0.00 | 47 | 1012.0 |
| 20260507161201 | 57 | 266 | 2.0 | 3.0 | 0.00 | 0.00 | 0.00 | 50 | 1011.9 |
| 20260507160642 | 57 | 255 | 2.0 | 3.0 | 0.00 | 0.00 | 0.00 | 50 | 1012.1 |
| 20260507155602 | 56 | 245 | 5.0 | 5.0 | 0.00 | 0.00 | 0.00 | 53 | 1012.6 |
| 20260507155042 | 56 | 236 | 6.0 | 8.0 | 0.00 | 0.00 | 0.00 | 48 | 1012.5 |
| 20260507154521 | 56 | 259 | 4.0 | 8.0 | 0.00 | 0.00 | 0.00 | 58 | 1012.3 |
| 20260507154003 | 56 | 209 | 4.0 | 5.0 | 0.00 | 0.00 | 0.00 | 52 | 1012.4 |
| 20260507153442 | 56 | 302 | 0.0 | 0.0 | 0.00 | 0.00 | 0.00 | 47 | 1012.3 |
| 20260507152922 | 56 | 268 | 4.0 | 5.0 | 0.00 | 0.00 | 0.00 | 53 | 1012.5 |
| 20260507150803 | 56 | 222 | 2.0 | 2.0 | 0.00 | 0.00 | 0.00 | 55 | 1012.6 |
| 20260507150242 | 55 | 220 | 0.0 | 0.0 | 0.00 | 0.00 | 0.00 | 58 | 1012.5 |
| 20260507145722 | 55 | 251 | 5.0 | 6.0 | 0.00 | 0.00 | 0.00 | 63 | 1012.8 |
| 20260507145203 | 55 | 208 | 2.0 | 3.0 | 0.00 | 0.00 | 0.00 | 55 | 1012.6 |
| 20260507144642 | 54 | 167 | 2.0 | 3.0 | 0.00 | 0.00 | 0.00 | 51 | 1012.6 |
| 20260507144122 | 54 | 212 | 2.0 | 3.0 | 0.00 | 0.00 | 0.00 | 54 | 1012.5 |
| 20260507143602 | 54 | 262 | 3.0 | 3.0 | 0.00 | 0.00 | 0.00 | 52 | 1012.4 |
| 20260507143042 | 54 | 214 | 0.0 | 2.0 | 0.00 | 0.00 | 0.00 | 60 | 1012.4 |
| 20260507142522 | 54 | 232 | 3.0 | 4.0 | 0.00 | 0.00 | 0.00 | 56 | 1012.5 |
| 20260507142004 | 54 | 192 | 0.0 | 0.0 | 0.00 | 0.00 | 0.00 | 56 | 1012.4 |
| 20260507141442 | 54 | 212 | 1.0 | 2.0 | 0.00 | 0.00 | 0.00 | 54 | 1012.5 |
| 20260507140922 | 54 | 224 | 0.0 | 1.0 | 0.00 | 0.00 | 0.00 | 62 | 1012.5 |
| 20260507140403 | 53 | 223 | 1.0 | 2.0 | 0.00 | 0.00 | 0.00 | 62 | 1012.3 |
| 20260507135842 | 53 | 237 | 2.0 | 3.0 | 0.00 | 0.00 | 0.00 | 55 | 1012.4 |
| 20260507135322 | 52 | 225 | 0.0 | 0.0 | 0.00 | 0.00 | 0.00 | 56 | 1012.5 |
| 20260507134803 | 52 | 228 | 2.0 | 3.0 | 0.00 | 0.00 | 0.00 | 61 | 1012.2 |
| 20260507134242 | 51 | 229 | 1.0 | 2.0 | 0.00 | 0.00 | 0.00 | 61 | 1012.3 |
| 20260507133202 | 50 | 206 | 0.0 | 1.0 | 0.00 | 0.00 | 0.00 | 67 | 1012.3 |